createdAt,value
2018-02-24T00:00:18.060Z,99683
2018-02-24T00:02:48.136Z,99686
2018-02-24T00:05:18.788Z,99681
2018-02-24T00:07:49.326Z,99678
2018-02-24T00:10:20.162Z,99684
2018-02-24T00:12:50.138Z,99678
2018-02-24T00:15:21.510Z,99676
2018-02-24T00:17:51.831Z,99675
2018-02-24T00:20:22.359Z,99670
2018-02-24T00:22:52.862Z,99671
2018-02-24T00:25:23.288Z,99667
2018-02-24T00:27:54.056Z,99668
2018-02-24T00:30:23.959Z,99670
2018-02-24T00:32:54.266Z,99666
2018-02-24T00:35:24.547Z,99662
2018-02-24T00:37:54.994Z,99665
2018-02-24T00:40:25.353Z,99659
2018-02-24T00:42:55.834Z,99653
2018-02-24T00:45:25.628Z,99654
2018-02-24T00:47:55.379Z,99653
2018-02-24T00:50:26.493Z,99649
2018-02-24T00:52:56.920Z,99646
2018-02-24T00:55:27.863Z,99638
2018-02-24T00:57:58.228Z,99636
2018-02-24T01:00:28.638Z,99629
2018-02-24T01:02:59.445Z,99624
2018-02-24T01:05:29.727Z,99623
2018-02-24T01:08:00.301Z,99628
2018-02-24T01:10:30.723Z,99617
2018-02-24T01:13:01.095Z,99613
2018-02-24T01:15:31.531Z,99613
2018-02-24T01:18:01.887Z,99609
2018-02-24T01:20:32.099Z,99603
2018-02-24T01:23:03.209Z,99614
2018-02-24T01:25:33.585Z,99610
2018-02-24T01:28:04.317Z,99599
2018-02-24T01:30:34.628Z,99594
2018-02-24T01:33:05.112Z,99590
2018-02-24T01:35:35.555Z,99584
2018-02-24T01:38:06.136Z,99582
2018-02-24T01:40:38.073Z,99584
2018-02-24T01:43:08.619Z,99587
2018-02-24T01:45:38.865Z,99583
2018-02-24T01:48:08.623Z,99580
2018-02-24T01:50:42.820Z,99576
2018-02-24T01:53:12.974Z,99572
2018-02-24T01:55:43.142Z,99573
2018-02-24T01:58:13.364Z,99576
2018-02-24T02:00:43.612Z,99568
2018-02-24T02:03:14.508Z,99571
2018-02-24T02:05:44.712Z,99568
2018-02-24T02:08:15.591Z,99569
2018-02-24T02:10:45.713Z,99568
2018-02-24T02:13:16.358Z,99569
2018-02-24T02:15:47.041Z,99568
2018-02-24T02:18:16.993Z,99568
2018-02-24T02:20:47.041Z,99568
2018-02-24T02:23:17.413Z,99569
2018-02-24T02:25:47.806Z,99565
2018-02-24T02:28:18.095Z,99565
2018-02-24T02:30:48.348Z,99559
2018-02-24T02:33:18.758Z,99555
2018-02-24T02:35:49.202Z,99556
2018-02-24T02:38:19.789Z,99553
2018-02-24T02:40:50.217Z,99547
2018-02-24T02:43:20.725Z,99544
2018-02-24T02:45:50.549Z,99540
2018-02-24T02:48:20.973Z,99541
2018-02-24T02:50:52.217Z,99536
2018-02-24T02:53:22.543Z,99534
2018-02-24T02:55:53.038Z,99532
2018-02-24T02:58:23.395Z,99528
2018-02-24T03:00:53.805Z,99520
2018-02-24T03:03:24.217Z,99527
2018-02-24T03:05:54.586Z,99524
2018-02-24T03:08:24.601Z,99520
2018-02-24T03:10:55.047Z,99520
2018-02-24T03:13:25.397Z,99516
2018-02-24T03:15:55.800Z,99519
2018-02-24T03:18:25.586Z,99512
2018-02-24T03:20:56.027Z,99506
2018-02-24T03:23:26.759Z,99499
2018-02-24T03:25:57.098Z,99495
2018-02-24T03:28:27.542Z,99497
2018-02-24T03:30:58.338Z,99494
2018-02-24T03:33:29.062Z,99494
2018-02-24T03:35:58.916Z,99488
2018-02-24T03:38:29.283Z,99490
2018-02-24T03:40:59.578Z,99481
2018-02-24T03:43:30.425Z,99475
2018-02-24T03:46:12.532Z,99471
2018-02-24T03:48:42.401Z,99466
2018-02-24T03:51:12.921Z,99474
2018-02-24T03:53:42.822Z,99476
2018-02-24T03:56:13.135Z,99475
2018-02-24T03:58:43.299Z,99483
2018-02-24T04:01:13.654Z,99479
2018-02-24T04:03:43.989Z,99483
2018-02-24T04:06:14.297Z,99477
2018-02-24T04:08:44.615Z,99472
2018-02-24T04:11:14.561Z,99483
2018-02-24T04:13:45.330Z,99479
2018-02-24T04:16:16.082Z,99475
2018-02-24T04:18:47.723Z,99472
2018-02-24T04:21:17.964Z,99470
2018-02-24T04:23:48.848Z,99466
2018-02-24T04:26:19.000Z,99459
2018-02-24T04:28:50.347Z,99456
2018-02-24T04:31:20.718Z,99453
2018-02-24T04:33:50.917Z,99451
2018-02-24T04:36:21.571Z,99460
2018-02-24T04:38:52.260Z,99454
2018-02-24T04:41:22.780Z,99456
2018-02-24T04:43:53.121Z,99439
2018-02-24T04:46:23.307Z,99438
2018-02-24T04:48:53.812Z,99435
2018-02-24T04:51:23.682Z,99432
2018-02-24T04:53:54.038Z,99429
2018-02-24T04:56:24.540Z,99416
2018-02-24T04:58:55.320Z,99420
2018-02-24T05:01:25.863Z,99416
2018-02-24T05:03:56.364Z,99414
2018-02-24T05:06:26.835Z,99419
2018-02-24T05:08:57.336Z,99422
2018-02-24T05:11:27.745Z,99424
2018-02-24T05:13:58.295Z,99427
2018-02-24T05:16:28.705Z,99426
2018-02-24T05:18:59.298Z,99424
2018-02-24T05:21:29.761Z,99424
2018-02-24T05:24:00.190Z,99421
2018-02-24T05:26:30.452Z,99435
2018-02-24T05:29:00.948Z,99443
2018-02-24T05:31:31.442Z,99448
2018-02-24T05:34:02.276Z,99448
2018-02-24T05:36:32.585Z,99449
2018-02-24T05:39:04.022Z,99452
2018-02-24T05:41:33.958Z,99447
2018-02-24T05:44:04.398Z,99447
2018-02-24T05:46:35.155Z,99446
2018-02-24T05:49:05.399Z,99448
2018-02-24T05:51:35.788Z,99446
2018-02-24T05:54:05.925Z,99441
2018-02-24T05:56:35.795Z,99436
2018-02-24T05:59:06.468Z,99427
2018-02-24T06:01:37.238Z,99430
2018-02-24T06:04:07.214Z,99427
2018-02-24T06:06:37.519Z,99429
2018-02-24T06:09:07.819Z,99435
2018-02-24T06:11:38.635Z,99430
2018-02-24T06:14:10.699Z,99432
2018-02-24T06:16:41.313Z,99442
2018-02-24T06:19:11.870Z,99437
2018-02-24T06:21:42.683Z,99436
2018-02-24T06:24:12.750Z,99434
2018-02-24T06:26:43.716Z,99438
2018-02-24T06:29:14.561Z,99429
2018-02-24T06:31:45.579Z,99430
2018-02-24T06:34:16.855Z,99424
2018-02-24T06:36:48.281Z,99430
2018-02-24T06:39:19.514Z,99430
2018-02-24T06:41:49.706Z,99427
2018-02-24T06:44:20.091Z,99420
2018-02-24T06:46:50.315Z,99420
2018-02-24T06:49:20.749Z,99418
2018-02-24T06:51:51.236Z,99410
2018-02-24T06:54:21.588Z,99407
2018-02-24T06:56:51.543Z,99400
2018-02-24T06:59:22.087Z,99401
2018-02-24T07:01:52.701Z,99396
2018-02-24T07:04:22.584Z,99392
2018-02-24T07:06:53.018Z,99387
2018-02-24T07:09:23.501Z,99385
2018-02-24T07:11:53.779Z,99379
2018-02-24T07:14:24.300Z,99383
2018-02-24T07:16:54.204Z,99385
2018-02-24T07:19:24.672Z,99389
2018-02-24T07:21:55.060Z,99384
2018-02-24T07:24:25.414Z,99386
2018-02-24T07:26:55.237Z,99381
2018-02-24T07:29:25.632Z,99378
2018-02-24T07:31:56.044Z,99377
2018-02-24T07:34:26.518Z,99379
2018-02-24T07:36:57.156Z,99374
2018-02-24T07:39:27.608Z,99375
2018-02-24T07:41:57.369Z,99370
2018-02-24T07:44:28.800Z,99374
2018-02-24T07:47:01.985Z,99374
2018-02-24T07:49:32.629Z,99373
2018-02-24T07:52:03.234Z,99372
2018-02-24T07:54:33.584Z,99370
2018-02-24T07:57:04.093Z,99369
2018-02-24T07:59:34.410Z,99372
2018-02-24T08:02:05.172Z,99371
2018-02-24T08:04:35.971Z,99372
2018-02-24T08:07:06.459Z,99371
2018-02-24T08:09:37.181Z,99373
2018-02-24T08:12:07.518Z,99365
2018-02-24T08:14:38.243Z,99372
2018-02-24T08:17:08.628Z,99374
2018-02-24T08:19:38.680Z,99368
2018-02-24T08:22:09.233Z,99372
2018-02-24T08:24:39.559Z,99374
2018-02-24T08:27:09.761Z,99375
2018-02-24T08:29:40.340Z,99374
2018-02-24T08:32:11.014Z,99373
2018-02-24T08:34:41.822Z,99373
2018-02-24T08:37:12.243Z,99375
2018-02-24T08:39:43.012Z,99375
2018-02-24T08:42:13.513Z,99375
2018-02-24T08:44:44.062Z,99372
2018-02-24T08:47:15.564Z,99372
2018-02-24T08:49:46.552Z,99373
2018-02-24T08:52:17.086Z,99372
2018-02-24T08:54:47.460Z,99372
2018-02-24T08:57:17.874Z,99369
2018-02-24T08:59:48.550Z,99370
2018-02-24T09:02:18.863Z,99371
2018-02-24T09:04:49.928Z,99375
2018-02-24T09:07:20.233Z,99373
2018-02-24T09:09:51.042Z,99374
2018-02-24T09:12:21.752Z,99366
2018-02-24T09:14:52.148Z,99372
2018-02-24T09:17:22.679Z,99375
2018-02-24T09:19:52.910Z,99376
2018-02-24T09:22:23.225Z,99377
2018-02-24T09:24:53.134Z,99375
2018-02-24T09:27:23.618Z,99367
2018-02-24T09:29:54.216Z,99374
2018-02-24T09:32:24.227Z,99371
2018-02-24T09:34:54.963Z,99367
2018-02-24T09:37:25.732Z,99364
2018-02-24T09:39:56.517Z,99363
2018-02-24T09:42:27.186Z,99368
2018-02-24T09:44:57.983Z,99359
2018-02-24T09:47:28.436Z,99356
2018-02-24T09:49:59.192Z,99357
2018-02-24T09:52:29.771Z,99362
2018-02-24T09:55:00.119Z,99360
2018-02-24T09:57:31.006Z,99357
2018-02-24T10:00:00.982Z,99356
2018-02-24T10:02:31.880Z,99349
2018-02-24T10:05:02.740Z,99347
2018-02-24T10:07:33.607Z,99348
2018-02-24T10:10:04.542Z,99345
2018-02-24T10:12:36.082Z,99335
2018-02-24T10:15:06.641Z,99337
2018-02-24T10:17:36.762Z,99336
2018-02-24T10:20:07.200Z,99328
2018-02-24T10:22:37.279Z,99326
2018-02-24T10:25:08.680Z,99327
2018-02-24T10:27:38.483Z,99324
2018-02-24T10:30:09.046Z,99318
2018-02-24T10:32:39.658Z,99310
2018-02-24T10:35:10.160Z,99305
2018-02-24T10:37:39.942Z,99302
2018-02-24T10:40:10.429Z,99289
2018-02-24T10:42:40.786Z,99286
2018-02-24T10:45:12.091Z,99284
2018-02-24T10:47:42.680Z,99282
2018-02-24T10:50:13.200Z,99282
2018-02-24T10:52:43.739Z,99275
2018-02-24T10:55:14.923Z,99270
2018-02-24T10:57:45.322Z,99271
2018-02-24T11:00:16.186Z,99267
2018-02-24T11:02:46.633Z,99265
2018-02-24T11:05:17.097Z,99263
2018-02-24T11:07:47.877Z,99255
2018-02-24T11:10:19.059Z,99250
2018-02-24T11:12:49.452Z,99246
2018-02-24T11:15:19.951Z,99241
2018-02-24T11:17:49.984Z,99236
2018-02-24T11:20:20.243Z,99230
2018-02-24T11:22:49.992Z,99224
2018-02-24T11:25:20.388Z,99222
2018-02-24T11:27:50.916Z,99220
2018-02-24T11:30:21.476Z,99216
2018-02-24T11:32:52.057Z,99215
2018-02-24T11:35:23.388Z,99208
2018-02-24T11:37:53.853Z,99206
2018-02-24T11:40:24.680Z,99204
2018-02-24T11:42:55.087Z,99194
2018-02-24T11:45:25.676Z,99187
2018-02-24T11:47:55.944Z,99193
2018-02-24T11:50:26.465Z,99182
2018-02-24T11:52:57.109Z,99180
2018-02-24T11:55:27.686Z,99170
2018-02-24T11:57:58.324Z,99171
2018-02-24T12:00:28.775Z,99165
2018-02-24T12:02:58.840Z,99161
2018-02-24T12:05:28.641Z,99157
2018-02-24T12:07:59.138Z,99155
2018-02-24T12:10:29.583Z,99157
2018-02-24T12:13:00.116Z,99155
2018-02-24T12:15:30.546Z,99155
2018-02-24T12:18:01.092Z,99149
2018-02-24T12:20:31.502Z,99144
2018-02-24T12:23:02.068Z,99144
2018-02-24T12:25:31.859Z,99140
2018-02-24T12:28:02.437Z,99133
2018-02-24T12:30:32.866Z,99129
2018-02-24T12:33:02.843Z,99134
2018-02-24T12:35:32.748Z,99132
2018-02-24T12:38:03.365Z,99128
2018-02-24T12:40:34.928Z,99133
2018-02-24T12:43:05.419Z,99127
2018-02-24T12:45:35.546Z,99129
2018-02-24T12:48:05.355Z,99124
2018-02-24T12:50:35.640Z,99123
2018-02-24T12:53:05.988Z,99122
2018-02-24T12:55:36.983Z,99117
2018-02-24T12:58:07.898Z,99118
2018-02-24T13:00:38.597Z,99114
2018-02-24T13:03:08.976Z,99112
2018-02-24T13:05:39.791Z,99107
2018-02-24T13:08:10.301Z,99106
2018-02-24T13:10:41.342Z,99109
2018-02-24T13:13:11.817Z,99098
2018-02-24T13:15:42.885Z,99100
2018-02-24T13:18:14.990Z,99103
2018-02-24T13:20:45.026Z,99101
2018-02-24T13:23:15.861Z,99099
2018-02-24T13:25:46.553Z,99096
2018-02-24T13:28:16.828Z,99095
2018-02-24T13:30:47.338Z,99097
2018-02-24T13:33:18.426Z,99105
2018-02-24T13:35:49.999Z,99100
2018-02-24T13:38:20.901Z,99103
2018-02-24T13:40:51.436Z,99101
2018-02-24T13:43:21.650Z,99100
2018-02-24T13:45:51.626Z,99098
2018-02-24T13:48:22.009Z,99090
2018-02-24T13:50:53.088Z,99084
2018-02-24T13:53:23.483Z,99092
2018-02-24T13:55:53.355Z,99085
2018-02-24T13:58:24.390Z,99085
2018-02-24T14:00:54.944Z,99085
2018-02-24T14:03:25.178Z,99082
2018-02-24T14:05:55.825Z,99085
2018-02-24T14:08:26.087Z,99081
2018-02-24T14:10:56.330Z,99082
2018-02-24T14:13:26.220Z,99079
2018-02-24T14:15:56.138Z,99077
2018-02-24T14:18:29.738Z,99077
2018-02-24T14:21:05.099Z,99081
2018-02-24T14:23:35.043Z,99081
2018-02-24T14:26:12.406Z,99082
2018-02-24T14:28:52.442Z,99073
2018-02-24T14:31:22.708Z,99075
2018-02-24T14:33:53.237Z,99077
2018-02-24T14:36:23.643Z,99071
2018-02-24T14:38:54.425Z,99077
2018-02-24T14:41:25.023Z,99076
2018-02-24T14:43:54.885Z,99076
2018-02-24T14:46:24.803Z,99079
2018-02-24T14:48:54.673Z,99078
2018-02-24T14:51:27.209Z,99081
2018-02-24T14:53:58.470Z,99073
2018-02-24T14:56:29.054Z,99074
2018-02-24T14:58:59.995Z,99078
2018-02-24T15:01:30.825Z,99070
2018-02-24T15:04:01.766Z,99073
2018-02-24T15:06:32.157Z,99078
2018-02-24T15:09:03.606Z,99079
2018-02-24T15:11:34.368Z,99077
2018-02-24T15:14:05.283Z,99073
2018-02-24T15:16:35.725Z,99071
2018-02-24T15:19:06.152Z,99083
2018-02-24T15:21:37.437Z,99083
2018-02-24T15:24:07.295Z,99082
2018-02-24T15:26:37.263Z,99085
2018-02-24T15:29:07.333Z,99084
2018-02-24T15:31:37.829Z,99082
2018-02-24T15:34:08.169Z,99082
2018-02-24T15:36:38.525Z,99085
2018-02-24T15:39:08.333Z,99083
2018-02-24T15:41:38.035Z,99084
2018-02-24T15:44:08.620Z,99087
2018-02-24T15:46:38.341Z,99083
2018-02-24T15:49:08.061Z,99080
2018-02-24T15:51:37.847Z,99080
2018-02-24T15:54:07.601Z,99083
2018-02-24T15:56:37.347Z,99081
2018-02-24T15:59:07.117Z,99085
2018-02-24T16:01:36.843Z,99084
2018-02-24T16:04:06.612Z,99086
2018-02-24T16:06:36.348Z,99088
2018-02-24T16:09:06.123Z,99087
2018-02-24T16:11:35.846Z,99091
2018-02-24T16:14:05.564Z,99087
2018-02-24T16:16:35.392Z,99085
2018-02-24T16:19:05.173Z,99087
2018-02-24T16:21:34.992Z,99084
2018-02-24T16:24:04.747Z,99090
2018-02-24T16:26:34.513Z,99099
2018-02-24T16:29:04.381Z,99109
2018-02-24T16:31:34.118Z,99103
2018-02-24T16:34:03.851Z,99112
2018-02-24T16:36:33.690Z,99112
2018-02-24T16:39:03.581Z,99117
2018-02-24T16:41:33.357Z,99120
2018-02-24T16:44:03.118Z,99120
2018-02-24T16:46:32.953Z,99122
2018-02-24T16:49:02.756Z,99121
2018-02-24T16:51:32.550Z,99122
2018-02-24T16:54:02.312Z,99131
2018-02-24T16:56:32.042Z,99128
2018-02-24T16:59:01.766Z,99131
2018-02-24T17:01:31.571Z,99131
2018-02-24T17:04:01.347Z,99136
2018-02-24T17:06:31.120Z,99134
2018-02-24T17:09:00.835Z,99129
2018-02-24T17:11:30.580Z,99129
2018-02-24T17:14:00.380Z,99127
2018-02-24T17:16:30.121Z,99127
2018-02-24T17:19:00.034Z,99130
2018-02-24T17:21:29.768Z,99127
2018-02-24T17:23:59.525Z,99134
2018-02-24T17:26:29.315Z,99137
2018-02-24T17:28:59.068Z,99136
2018-02-24T17:31:28.852Z,99142
2018-02-24T17:33:58.624Z,99143
2018-02-24T17:36:28.328Z,99145
2018-02-24T17:38:58.111Z,99152
2018-02-24T17:41:27.876Z,99149
2018-02-24T17:43:57.618Z,99148
2018-02-24T17:46:27.400Z,99152
2018-02-24T17:48:57.124Z,99150
2018-02-24T17:51:26.864Z,99149
2018-02-24T17:53:56.625Z,99149
2018-02-24T17:56:26.337Z,99152
2018-02-24T17:58:56.090Z,99153
2018-02-24T18:01:25.811Z,99156
2018-02-24T18:03:55.645Z,99156
2018-02-24T18:06:25.389Z,99156
2018-02-24T18:08:55.200Z,99158
2018-02-24T18:11:25.002Z,99157
2018-02-24T18:13:54.833Z,99155
2018-02-24T18:16:24.623Z,99155
2018-02-24T18:18:54.431Z,99154
2018-02-24T18:21:24.166Z,99151
2018-02-24T18:23:54.034Z,99152
2018-02-24T18:26:23.801Z,99158
2018-02-24T18:28:53.571Z,99160
2018-02-24T18:31:23.338Z,99163
2018-02-24T18:33:53.089Z,99164
2018-02-24T18:36:22.942Z,99166
2018-02-24T18:38:52.733Z,99165
2018-02-24T18:41:22.513Z,99167
2018-02-24T18:43:52.301Z,99174
2018-02-24T18:46:22.069Z,99172
2018-02-24T18:48:51.849Z,99170
2018-02-24T18:51:21.618Z,99170
2018-02-24T18:53:51.373Z,99173
2018-02-24T18:56:21.190Z,99177
2018-02-24T18:58:50.928Z,99176
2018-02-24T19:01:20.700Z,99173
2018-02-24T19:03:50.438Z,99169
2018-02-24T19:06:20.183Z,99172
2018-02-24T19:08:49.959Z,99174
2018-02-24T19:11:19.751Z,99177
2018-02-24T19:13:49.544Z,99168
2018-02-24T19:16:19.279Z,99169
2018-02-24T19:18:49.005Z,99176
2018-02-24T19:21:18.756Z,99172
2018-02-24T19:23:48.484Z,99179
2018-02-24T19:26:18.276Z,99174
2018-02-24T19:28:48.096Z,99176
2018-02-24T19:31:17.854Z,99177
2018-02-24T19:33:47.646Z,99175
2018-02-24T19:36:17.383Z,99179
2018-02-24T19:38:47.138Z,99178
2018-02-24T19:41:16.953Z,99181
2018-02-24T19:43:46.709Z,99176
2018-02-24T19:46:16.585Z,99180
2018-02-24T19:48:46.361Z,99180
2018-02-24T19:51:16.136Z,99172
2018-02-24T19:53:45.871Z,99173
2018-02-24T19:56:15.590Z,99177
2018-02-24T19:58:45.419Z,99175
2018-02-24T20:01:15.144Z,99184
2018-02-24T20:03:44.870Z,99185
2018-02-24T20:06:14.624Z,99183
2018-02-24T20:08:44.347Z,99181
2018-02-24T20:11:14.069Z,99184
2018-02-24T20:13:44.486Z,99184
2018-02-24T20:16:14.290Z,99187
2018-02-24T20:18:44.093Z,99188
2018-02-24T20:21:13.821Z,99186
2018-02-24T20:23:43.513Z,99190
2018-02-24T20:26:13.267Z,99187
2018-02-24T20:28:42.984Z,99186
2018-02-24T20:31:12.744Z,99189
2018-02-24T20:33:42.538Z,99192
2018-02-24T20:36:12.253Z,99196
2018-02-24T20:38:42.011Z,99191
2018-02-24T20:41:11.740Z,99194
2018-02-24T20:43:41.484Z,99190
2018-02-24T20:46:11.303Z,99189
2018-02-24T20:48:41.070Z,99193
2018-02-24T20:51:10.816Z,99188
2018-02-24T20:53:40.585Z,99189
2018-02-24T20:56:10.339Z,99193
2018-02-24T20:58:40.073Z,99191
2018-02-24T21:01:09.839Z,99197
2018-02-24T21:03:39.651Z,99195
2018-02-24T21:06:09.473Z,99204
2018-02-24T21:08:39.207Z,99201
2018-02-24T21:11:09.061Z,99206
2018-02-24T21:13:38.878Z,99203
2018-02-24T21:16:08.627Z,99201
2018-02-24T21:18:38.364Z,99204
2018-02-24T21:21:08.092Z,99205
2018-02-24T21:23:37.899Z,99207
2018-02-24T21:26:07.690Z,99211
2018-02-24T21:28:37.404Z,99208
2018-02-24T21:31:07.161Z,99213
2018-02-24T21:33:36.887Z,99214
2018-02-24T21:36:06.695Z,99210
2018-02-24T21:38:36.498Z,99214
2018-02-24T21:41:06.218Z,99204
2018-02-24T21:43:35.980Z,99211
2018-02-24T21:46:05.729Z,99211
2018-02-24T21:48:35.462Z,99211
2018-02-24T21:51:05.238Z,99216
2018-02-24T21:53:34.979Z,99218
2018-02-24T21:56:04.798Z,99217
2018-02-24T21:58:34.512Z,99215
2018-02-24T22:01:04.207Z,99219
2018-02-24T22:03:33.988Z,99215
2018-02-24T22:06:03.725Z,99220
2018-02-24T22:08:33.508Z,99224
2018-02-24T22:11:03.329Z,99220
2018-02-24T22:13:33.136Z,99228
2018-02-24T22:16:02.910Z,99228
2018-02-24T22:18:32.763Z,99233
2018-02-24T22:21:02.509Z,99229
2018-02-24T22:23:32.319Z,99228
2018-02-24T22:26:02.119Z,99234
2018-02-24T22:28:31.881Z,99231
2018-02-24T22:31:01.706Z,99234
2018-02-24T22:33:31.479Z,99238
2018-02-24T22:36:01.225Z,99240
2018-02-24T22:38:30.954Z,99234
2018-02-24T22:41:00.712Z,99242
2018-02-24T22:43:30.415Z,99243
2018-02-24T22:46:00.124Z,99243
2018-02-24T22:48:35.497Z,99246
2018-02-24T22:51:05.255Z,99243
2018-02-24T22:53:35.018Z,99238
2018-02-24T22:56:04.783Z,99243
2018-02-24T22:58:34.542Z,99242
2018-02-24T23:01:04.307Z,99241
2018-02-24T23:03:34.063Z,99239
2018-02-24T23:06:03.914Z,99239
2018-02-24T23:08:33.666Z,99240
2018-02-24T23:11:03.362Z,99237
2018-02-24T23:13:33.123Z,99238
2018-02-24T23:16:02.816Z,99240
2018-02-24T23:18:32.592Z,99241
2018-02-24T23:21:02.291Z,99241
2018-02-24T23:23:32.017Z,99241
2018-02-24T23:26:01.772Z,99238
2018-02-24T23:28:31.498Z,99240
2018-02-24T23:31:01.243Z,99245
2018-02-24T23:33:31.068Z,99246
2018-02-24T23:36:00.764Z,99251
2018-02-24T23:38:30.522Z,99258
2018-02-24T23:41:00.298Z,99254
2018-02-24T23:43:30.032Z,99256
2018-02-24T23:45:59.789Z,99255
2018-02-24T23:48:29.538Z,99259
2018-02-24T23:50:59.303Z,99263
2018-02-24T23:53:29.058Z,99259
2018-02-24T23:55:58.927Z,99264
2018-02-24T23:58:28.711Z,99273
